Latest Weather Observations for Halls Creek

IDW60801

Issued at 11:33 am WST Monday 29 May 2017 (issued every 30 minutes, with the page automatically refreshed every 10 minutes)

About weather observations | Map of weather stations | Latest weather observations for WA | Other Formats
Station Details ID: 002079 Name: HALLS CREEK AIRPORT Lat: -18.23 Lon: 127.67 Height: 409.4 m
Data from the previous 72 hours. | See also: Recent months at Halls Creek
Date/Time
WST
Temp
°C
App
Temp
°C
Dew
Point
°C
Rel
Hum
%
Delta-T
°C
Wind Press
QNH
hPa
Press
MSL
hPa
Rain since
9am
mm
Dir  Spd
km/h
Gust
km/h
Spd
kts
Gust
kts
29/11:30am 29.3 22.5 3.3 19 13.3 ENE 28 35 15 19 1017.5 1015.5 0.0
29/11:00am 28.9 21.4 3.7 20 13.0 ENE 32 39 17 21 1018.0 1015.9 0.0
29/10:30am 28.5 21.4 3.4 20 12.8 ENE 30 39 16 21 1018.2 1016.1 0.0
29/10:00am 28.1 21.0 3.7 21 12.5 ENE 30 39 16 21 1018.6 1016.6 0.0
29/09:30am 27.5 21.7 4.5 23 11.9 ENE 24 33 13 18 1018.7 1016.7 0.0
29/09:00am 26.5 19.9 4.3 24 11.4 ENE 28 41 15 22 1018.8 1016.8 0.0
29/08:30am 24.9 20.8 4.6 27 10.4 NE 15 24 8 13 1018.8 1016.8 0.0
29/08:00am 23.4 20.5 4.9 30 9.4 E 9 15 5 8 1018.6 1016.6 0.0
29/07:30am 21.9 19.2 5.8 35 8.2 E 9 13 5 7 1018.5 1016.5 0.0
29/07:00am 20.1 17.7 5.4 38 7.4 E 7 9 4 5 1018.2 1016.1 0.0
29/06:30am 15.4 13.5 6.7 56 4.3 ENE 6 7 3 4 1017.7 1015.6 0.0
29/06:00am 14.9 12.8 5.7 54 4.5 SW 6 9 3 5 1017.3 1015.3 0.0
29/05:30am 12.8 11.5 5.9 63 3.3 SW 2 7 1 4 1017.0 1015.0 0.0
29/05:00am 12.7 11.8 6.1 64 3.2 CALM 0 0 0 0 1016.5 1014.5 0.0
29/04:30am 13.6 12.6 5.7 59 3.8 CALM 0 0 0 0 1016.2 1014.2 0.0
29/04:00am 14.1 12.0 6.0 58 3.9 SSW 6 7 3 4 1016.2 1014.2 0.0
29/03:30am 14.3 13.4 5.9 57 4.1 CALM 0 4 0 2 1016.1 1014.0 0.0
29/03:00am 14.9 13.9 5.7 54 4.5 CALM 0 0 0 0 1016.0 1013.9 0.0
29/02:30am 14.8 13.9 5.9 55 4.4 CALM 0 0 0 0 1016.1 1014.0 0.0
29/02:00am 14.9 13.8 5.1 52 4.7 CALM 0 0 0 0 1016.4 1014.4 0.0
29/01:30am 15.5 14.3 4.8 49 5.1 CALM 0 0 0 0 1016.6 1014.6 0.0
29/01:00am 16.1 14.8 4.2 45 5.7 CALM 0 0 0 0 1016.8 1014.8 0.0
29/12:30am 16.2 15.1 4.9 47 5.5 CALM 0 0 0 0 1017.1 1015.1 0.0
29/12:00am 16.5 15.4 4.9 46 5.6 CALM 0 0 0 0 1016.9 1014.9 0.0
 
Date/Time
WST
Temp
°C
App
Temp
°C
Dew
Point
°C
Rel
Hum
%
Delta-T
°C
Wind Press
QNH
hPa
Press
MSL
hPa
Rain since
9am
mm
Dir  Spd
km/h
Gust
km/h
Spd
kts
Gust
kts
28/11:30pm 17.4 16.1 4.0 41 6.4 CALM 0 0 0 0 1017.2 1015.2 0.0
28/11:00pm 17.0 15.9 5.0 45 5.8 CALM 0 0 0 0 1017.3 1015.3 0.0
28/10:30pm 17.8 16.7 5.1 43 6.2 CALM 0 0 0 0 1017.4 1015.4 0.0
28/10:00pm 18.6 17.5 5.1 41 6.7 CALM 0 2 0 1 1017.5 1015.5 0.0
28/09:30pm 18.5 17.5 5.4 42 6.5 CALM 0 7 0 4 1017.7 1015.6 0.0
28/09:00pm 18.9 17.2 5.7 42 6.6 SW 4 6 2 3 1017.5 1015.5 0.0
28/08:30pm 20.0 17.6 5.3 38 7.4 SW 7 7 4 4 1017.5 1015.5 0.0
28/08:00pm 18.6 16.6 6.4 45 6.2 SW 6 7 3 4 1017.3 1015.3 0.0
28/07:30pm 20.7 18.5 5.1 36 7.8 SSW 6 6 3 3 1016.9 1014.9 0.0
28/07:00pm 20.6 18.9 5.8 38 7.5 SSW 4 7 2 4 1016.6 1014.6 0.0
28/06:30pm 21.0 20.1 6.2 38 7.6 CALM 0 0 0 0 1016.0 1013.9 0.0
28/06:00pm 22.0 19.7 5.0 33 8.6 NNE 6 7 3 4 1015.6 1013.5 0.0
28/05:30pm 24.8 21.8 4.0 26 10.5 NE 9 11 5 6 1015.4 1013.3 0.0
28/05:00pm 27.0 24.3 3.5 22 11.9 ENE 7 9 4 5 1015.1 1013.0 0.0
28/04:30pm 28.1 25.4 3.7 21 12.5 NE 7 11 4 6 1014.7 1012.7 0.0
28/04:00pm 29.1 24.6 2.4 18 13.5 NE 15 20 8 11 1014.6 1012.6 0.0
28/03:30pm 29.5 24.3 2.7 18 13.6 NE 19 28 10 15 1014.6 1012.6 0.0
28/03:00pm 29.8 24.5 2.1 17 14.0 NE 19 28 10 15 1014.4 1012.4 0.0
28/02:30pm 29.7 24.2 2.1 17 13.9 NE 20 32 11 17 1014.3 1012.3 0.0
28/02:00pm 30.2 24.1 2.5 17 14.1 NE 24 33 13 18 1014.3 1012.3 0.0
28/01:30pm 30.1 24.9 2.4 17 14.1 ENE 19 28 10 15 1014.5 1012.5 0.0
28/01:00pm 30.5 25.2 1.9 16 14.4 ENE 19 28 10 15 1014.8 1012.8 0.0
28/12:30pm 30.5 24.3 1.9 16 14.4 NE 24 33 13 18 1015.1 1013.0 0.0
28/12:00pm 30.2 22.9 -0.2 14 14.8 NE 28 39 15 21 1015.6 1013.5 0.0
28/11:30am 30.1 22.5 0.6 15 14.5 NE 30 46 16 25 1016.3 1014.3 0.0
28/11:00am 30.0 23.4 2.3 17 14.0 ENE 26 35 14 19 1017.0 1015.0 0.0
28/10:30am 29.1 21.8 2.4 18 13.5 E 30 37 16 20 1017.4 1015.4 0.0
28/10:00am 29.1 23.2 3.9 20 13.0 E 24 35 13 19 1017.5 1015.5 0.0
28/09:30am 27.6 23.1 4.0 22 12.1 E 17 24 9 13 1017.9 1015.8 0.0
28/09:00am 26.0 21.3 5.0 26 10.9 ENE 19 24 10 13 1018.1 1016.0 0.0
28/08:30am 24.6 20.7 5.4 29 9.9 E 15 20 8 11 1018.1 1016.0 0.0
28/08:00am 22.7 19.5 5.2 32 8.9 ESE 11 15 6 8 1018.2 1016.1 0.0
28/07:30am 20.0 18.5 6.7 42 6.8 E 4 9 2 5 1018.0 1015.9 0.0
28/07:00am 16.3 15.7 7.3 55 4.6 CALM 0 0 0 0 1017.7 1015.6 0.0
28/06:30am 12.6 11.9 6.9 68 2.8 CALM 0 0 0 0 1017.2 1015.2 0.0
28/06:00am 10.8 10.0 6.4 74 2.1 CALM 0 0 0 0 1016.9 1014.9 0.0
28/05:30am 11.2 10.2 5.7 69 2.6 CALM 0 0 0 0 1016.5 1014.5 0.0
28/05:00am 11.4 9.3 5.9 69 2.6 WSW 6 6 3 3 1016.4 1014.4 0.0
28/04:30am 11.2 8.9 5.9 70 2.5 SW 7 9 4 5 1016.1 1014.0 0.0
28/04:00am 12.5 10.3 5.4 62 3.4 WSW 6 7 3 4 1016.1 1014.0 0.0
28/03:30am 12.8 10.7 5.7 62 3.4 SW 6 7 3 4 1016.1 1014.0 0.0
28/03:00am 12.3 11.4 5.9 65 3.1 CALM 0 0 0 0 1016.2 1014.2 0.0
28/02:30am 12.8 11.8 5.5 61 3.5 CALM 0 0 0 0 1016.1 1014.0 0.0
28/02:00am 13.9 12.8 5.0 55 4.2 CALM 0 0 0 0 1016.2 1014.2 0.0
28/01:30am 13.7 12.6 5.3 57 4.0 CALM 0 0 0 0 1016.6 1014.6 0.0
28/01:00am 14.6 13.2 5.7 55 4.3 E 2 6 1 3 1016.7 1014.7 0.0
28/12:30am 14.5 12.3 5.3 54 4.4 E 6 7 3 4 1016.7 1014.7 0.0
28/12:00am 14.4 13.4 5.7 56 4.2 CALM 0 0 0 0 1016.9 1014.9 0.0
 
Date/Time
WST
Temp
°C
App
Temp
°C
Dew
Point
°C
Rel
Hum
%
Delta-T
°C
Wind Press
QNH
hPa
Press
MSL
hPa
Rain since
9am
mm
Dir  Spd
km/h
Gust
km/h
Spd
kts
Gust
kts
27/11:30pm 14.5 13.5 5.6 55 4.3 CALM 0 0 0 0 1016.9 1014.9 0.0
27/11:00pm 15.0 14.0 5.5 53 4.6 CALM 0 0 0 0 1017.0 1015.0 0.0
27/10:30pm 15.7 14.7 5.6 51 4.9 CALM 0 0 0 0 1017.2 1015.2 0.0
27/10:00pm 17.3 15.4 4.9 44 6.0 E 4 7 2 4 1017.3 1015.3 0.0
27/09:30pm 19.6 17.4 5.3 39 7.1 ENE 6 7 3 4 1017.2 1015.2 0.0
27/09:00pm 18.7 16.3 5.2 41 6.7 ENE 7 9 4 5 1017.2 1015.2 0.0
27/08:30pm 17.8 16.8 5.7 45 6.0 CALM 0 0 0 0 1017.1 1015.1 0.0
27/08:00pm 18.1 17.1 5.7 44 6.2 CALM 0 0 0 0 1017.1 1015.1 0.0
27/07:30pm 18.8 16.7 5.6 42 6.6 ESE 6 7 3 4 1016.5 1014.5 0.0
27/07:00pm 19.7 17.3 5.4 39 7.2 ESE 7 9 4 5 1016.2 1014.2 0.0
27/06:30pm 20.9 17.7 5.3 36 7.9 ESE 11 13 6 7 1015.9 1013.8 0.0
27/06:00pm 21.5 19.0 4.6 33 8.4 ESE 7 9 4 5 1015.4 1013.3 0.0
27/05:30pm 24.7 21.8 4.5 27 10.3 E 9 11 5 6 1014.9 1012.9 0.0
27/05:00pm 26.5 23.2 4.3 24 11.4 E 11 15 6 8 1014.6 1012.6 0.0
27/04:30pm 28.8 24.7 4.3 21 12.7 E 15 20 8 11 1014.4 1012.4 0.0
27/04:00pm 29.6 24.7 4.3 20 13.2 E 19 24 10 13 1014.1 1012.1 0.0
27/03:30pm 30.2 24.7 4.0 19 13.7 ENE 22 32 12 17 1014.1 1012.1 0.0
27/03:00pm 30.6 26.5 4.4 19 13.8 ENE 15 28 8 15 1014.1 1012.1 0.0
27/02:30pm 30.5 24.5 3.5 18 14.0 ENE 24 56 13 30 1014.1 1012.1 0.0
27/02:25pm 30.7 25.5 3.7 18 14.1 ENE 20 56 11 30 1014.0 1012.0 0.0
27/02:00pm 30.7 26.1 3.7 18 14.1 ENE 17 28 9 15 1014.3 1012.3 0.0
27/01:30pm 31.2 26.7 4.1 18 14.2 ENE 17 35 9 19 1014.4 1012.4 0.0
27/01:00pm 30.6 26.0 3.6 18 14.0 E 17 37 9 20 1014.6 1012.6 0.0
27/12:30pm 30.5 24.5 3.5 18 14.0 ENE 24 35 13 19 1015.5 1013.4 0.0
27/12:00pm 30.0 24.9 3.9 19 13.6 E 20 30 11 16 1015.9 1013.8 0.0
27/11:30am 29.5 24.6 4.2 20 13.2 ENE 19 30 10 16 1016.4 1014.4 0.0
27/11:00am 29.7 23.9 4.4 20 13.2 ENE 24 35 13 19 1016.6 1014.6 0.0
27/10:30am 29.1 24.2 5.2 22 12.6 E 20 32 11 17 1017.0 1015.0 0.0
27/10:00am 28.1 23.2 5.0 23 12.1 E 20 30 11 16 1017.5 1015.5 0.0
27/09:30am 27.3 23.6 6.1 26 11.3 ENE 15 24 8 13 1018.1 1016.0 0.0
27/09:00am 26.3 22.1 5.8 27 10.8 E 17 22 9 12 1018.2 1016.1 0.0
27/08:30am 25.4 21.9 5.6 28 10.3 ENE 13 19 7 10 1018.1 1016.0 0.0
27/08:00am 23.3 20.7 6.1 33 8.9 E 9 13 5 7 1018.0 1015.9 0.0
27/07:30am 21.0 20.3 6.9 40 7.3 CALM 0 0 0 0 1017.5 1015.5 0.0
27/07:00am 16.5 16.0 7.7 56 4.5 CALM 0 0 0 0 1017.4 1015.4 0.0
27/06:30am 12.8 12.2 7.3 69 2.7 CALM 0 0 0 0 1017.1 1015.1 0.0
27/06:00am 10.7 9.9 6.6 76 2.0 CALM 0 0 0 0 1016.9 1014.9 0.0
27/05:30am 10.9 10.1 6.6 75 2.1 CALM 0 0 0 0 1016.7 1014.7 0.0
27/05:00am 11.2 10.4 6.5 73 2.3 CALM 0 0 0 0 1016.5 1014.5 0.0
27/04:30am 11.5 10.6 6.2 70 2.5 CALM 0 0 0 0 1016.3 1014.3 0.0
27/04:00am 11.9 11.1 6.4 69 2.7 CALM 0 0 0 0 1016.4 1014.4 0.0
27/03:30am 11.8 11.0 6.3 69 2.7 CALM 0 0 0 0 1016.2 1014.2 0.0
27/03:00am 12.1 11.2 6.2 67 2.8 CALM 0 0 0 0 1016.1 1014.0 0.0
27/02:30am 12.5 11.7 6.3 66 3.0 CALM 0 0 0 0 1016.2 1014.2 0.0
27/02:00am 13.3 12.4 6.2 62 3.5 CALM 0 0 0 0 1016.3 1014.3 0.0
27/01:30am 13.2 12.4 6.3 63 3.4 CALM 0 0 0 0 1016.5 1014.5 0.0
27/01:00am 13.6 12.7 6.2 61 3.6 CALM 0 0 0 0 1016.6 1014.6 0.0
27/12:30am 14.1 13.2 6.2 59 3.9 CALM 0 0 0 0 1016.7 1014.7 0.0
27/12:00am 14.2 13.4 6.3 59 3.9 CALM 0 0 0 0 1016.8 1014.8 0.0
 
Date/Time
WST
Temp
°C
App
Temp
°C
Dew
Point
°C
Rel
Hum
%
Delta-T
°C
Wind Press
QNH
hPa
Press
MSL
hPa
Rain since
9am
mm
Dir  Spd
km/h
Gust
km/h
Spd
kts
Gust
kts
26/11:30pm 14.7 13.8 6.0 56 4.3 CALM 0 0 0 0 1016.8 1014.8 0.0
26/11:00pm 15.1 14.2 6.1 55 4.4 CALM 0 0 0 0 1016.9 1014.9 0.0
26/10:30pm 15.8 14.9 6.0 52 4.8 CALM 0 0 0 0 1017.0 1015.0 0.0
26/10:00pm 15.9 15.1 6.3 53 4.8 CALM 0 0 0 0 1017.0 1015.0 0.0
26/09:30pm 16.6 15.0 6.4 51 5.1 SE 4 6 2 3 1017.0 1015.0 0.0
26/09:00pm 18.4 16.3 5.6 43 6.4 ENE 6 7 3 4 1016.9 1014.9 0.0
26/08:30pm 17.5 16.5 5.8 46 5.8 CALM 0 0 0 0 1016.7 1014.7 0.0
26/08:00pm 17.6 16.7 5.9 46 5.8 CALM 0 0 0 0 1016.6 1014.6 0.0
26/07:30pm 18.3 16.7 6.2 45 6.1 SSE 4 9 2 5 1016.5 1014.5 0.0
26/07:00pm 18.6 17.7 6.1 44 6.3 CALM 0 0 0 0 1016.1 1014.0 0.0
26/06:30pm 19.7 18.7 5.7 40 7.1 CALM 0 0 0 0 1015.7 1013.6 0.0
26/06:00pm 21.5 19.2 4.6 33 8.4 NNE 6 9 3 5 1015.4 1013.3 0.0
26/05:30pm 23.0 20.5 4.0 29 9.5 NE 6 7 3 4 1014.9 1012.9 0.0
26/05:00pm 26.8 22.9 3.3 22 11.9 E 13 17 7 9 1014.6 1012.6 0.0
26/04:30pm 29.0 24.7 3.1 19 13.2 E 15 22 8 12 1014.3 1012.3 0.0
26/04:00pm 30.2 24.9 1.6 16 14.3 E 19 26 10 14 1014.0 1012.0 0.0
26/03:30pm 30.7 25.3 1.1 15 14.8 E 19 26 10 14 1013.9 1011.8 0.0
26/03:00pm 31.3 26.1 2.5 16 14.8 ENE 19 28 10 15 1013.8 1011.7 0.0
26/02:30pm 31.4 26.0 2.6 16 14.8 ENE 20 28 11 15 1013.8 1011.7 0.0
26/02:00pm 31.4 26.2 2.6 16 14.8 ENE 19 30 10 16 1013.9 1011.8 0.0
26/01:30pm 31.2 26.1 3.3 17 14.5 ENE 19 24 10 13 1014.2 1012.2 0.0
26/01:00pm 30.8 25.0 2.1 16 14.6 NE 22 35 12 19 1014.6 1012.6 0.0
26/12:30pm 30.8 25.5 3.0 17 14.3 ENE 20 32 11 17 1015.2 1013.1 0.0
26/12:00pm 30.7 25.8 5.2 20 13.6 NE 20 35 11 19 1015.7 1013.6 0.0

Other Formats:

Comma delimited format used in spreadsheet applications
http://www.bom.gov.au/fwo/IDW60801/IDW60801.94212.axf

JavaScript Object Notation format (JSON) in row-major order
http://www.bom.gov.au/fwo/IDW60801/IDW60801.94212.json